sensor_id;sensor_type;location;lat;lon;timestamp;P1;durP1;ratioP1;P2;durP2;ratioP2
82396;SDS011;72034;51.426;7.534;2024-01-30T05:02:01;11.98;;;8.38;;
82396;SDS011;72034;51.426;7.534;2024-01-30T05:04:27;11.25;;;7.50;;
82396;SDS011;72034;51.426;7.534;2024-01-30T05:06:52;10.35;;;8.15;;
82396;SDS011;72034;51.426;7.534;2024-01-30T05:09:18;11.30;;;7.60;;
82396;SDS011;72034;51.426;7.534;2024-01-30T05:11:44;10.15;;;7.97;;
82396;SDS011;72034;51.426;7.534;2024-01-30T05:14:09;9.70;;;8.00;;
82396;SDS011;72034;51.426;7.534;2024-01-30T05:16:36;12.05;;;7.25;;
82396;SDS011;72034;51.426;7.534;2024-01-30T05:19:01;10.40;;;8.15;;
82396;SDS011;72034;51.426;7.534;2024-01-30T05:21:26;10.45;;;7.32;;
82396;SDS011;72034;51.426;7.534;2024-01-30T05:23:51;11.43;;;7.85;;
82396;SDS011;72034;51.426;7.534;2024-01-30T05:26:17;8.50;;;7.57;;
82396;SDS011;72034;51.426;7.534;2024-01-30T05:28:42;10.45;;;8.18;;
82396;SDS011;72034;51.426;7.534;2024-01-30T05:31:09;10.35;;;7.60;;
82396;SDS011;72034;51.426;7.534;2024-01-30T05:33:35;8.70;;;7.65;;
82396;SDS011;72034;51.426;7.534;2024-01-30T05:36:00;14.70;;;7.82;;
82396;SDS011;72034;51.426;7.534;2024-01-30T05:38:25;10.52;;;7.65;;
82396;SDS011;72034;51.426;7.534;2024-01-30T05:40:50;8.25;;;7.43;;
82396;SDS011;72034;51.426;7.534;2024-01-30T05:43:16;10.40;;;7.95;;
82396;SDS011;72034;51.426;7.534;2024-01-30T05:45:41;10.95;;;7.75;;
82396;SDS011;72034;51.426;7.534;2024-01-30T05:48:06;12.82;;;8.40;;
82396;SDS011;72034;51.426;7.534;2024-01-30T05:50:32;10.13;;;7.80;;
82396;SDS011;72034;51.426;7.534;2024-01-30T05:52:57;11.40;;;7.95;;
82396;SDS011;72034;51.426;7.534;2024-01-30T05:55:22;11.60;;;7.85;;
82396;SDS011;72034;51.426;7.534;2024-01-30T05:57:48;10.63;;;8.50;;
82396;SDS011;72034;51.426;7.534;2024-01-30T06:00:13;8.48;;;7.20;;
82396;SDS011;72034;51.426;7.534;2024-01-30T06:02:39;9.70;;;7.70;;
82396;SDS011;72034;51.426;7.534;2024-01-30T06:10:41;8.43;;;6.97;;
82396;SDS011;72034;51.426;7.534;2024-01-30T06:13:07;11.52;;;8.20;;
82396;SDS011;72034;51.426;7.534;2024-01-30T06:15:32;13.45;;;7.93;;
82396;SDS011;72034;51.426;7.534;2024-01-30T06:17:58;11.20;;;7.85;;
82396;SDS011;72034;51.426;7.534;2024-01-30T06:20:23;11.88;;;8.00;;
82396;SDS011;72034;51.426;7.534;2024-01-30T06:22:48;10.30;;;7.68;;
82396;SDS011;72034;51.426;7.534;2024-01-30T06:25:14;9.60;;;7.15;;
82396;SDS011;72034;51.426;7.534;2024-01-30T06:27:39;9.15;;;7.93;;
82396;SDS011;72034;51.426;7.534;2024-01-30T06:30:05;10.70;;;7.85;;
82396;SDS011;72034;51.426;7.534;2024-01-30T06:32:31;12.57;;;8.10;;
82396;SDS011;72034;51.426;7.534;2024-01-30T06:34:59;12.75;;;8.25;;
82396;SDS011;72034;51.426;7.534;2024-01-30T06:37:25;10.13;;;8.32;;
82396;SDS011;72034;51.426;7.534;2024-01-30T06:39:50;12.73;;;7.43;;
82396;SDS011;72034;51.426;7.534;2024-01-30T06:42:17;11.73;;;7.60;;
82396;SDS011;72034;51.426;7.534;2024-01-30T06:44:42;10.05;;;7.65;;
82396;SDS011;72034;51.426;7.534;2024-01-30T06:47:07;9.55;;;7.55;;
82396;SDS011;72034;51.426;7.534;2024-01-30T06:49:33;11.07;;;7.22;;
82396;SDS011;72034;51.426;7.534;2024-01-30T06:52:01;13.65;;;8.13;;
82396;SDS011;72034;51.426;7.534;2024-01-30T06:54:30;9.68;;;7.85;;
82396;SDS011;72034;51.426;7.534;2024-01-30T06:57:01;9.25;;;7.60;;
82396;SDS011;72034;51.426;7.534;2024-01-30T06:59:27;9.00;;;7.72;;
82396;SDS011;72034;51.426;7.534;2024-01-30T07:01:52;9.85;;;7.68;;
82396;SDS011;72034;51.426;7.534;2024-01-30T07:04:20;10.85;;;7.32;;
82396;SDS011;72034;51.426;7.534;2024-01-30T07:06:46;9.60;;;7.93;;
82396;SDS011;72034;51.426;7.534;2024-01-30T07:09:11;11.30;;;8.18;;
82396;SDS011;72034;51.426;7.534;2024-01-30T07:11:41;10.70;;;8.55;;
82396;SDS011;72034;51.426;7.534;2024-01-30T07:14:07;11.13;;;8.30;;
82396;SDS011;72034;51.426;7.534;2024-01-30T07:16:34;9.63;;;7.68;;
82396;SDS011;72034;51.426;7.534;2024-01-30T07:18:59;11.48;;;7.93;;
82396;SDS011;72034;51.426;7.534;2024-01-30T07:21:25;9.38;;;7.05;;
82396;SDS011;72034;51.426;7.534;2024-01-30T07:23:58;11.45;;;8.02;;
82396;SDS011;72034;51.426;7.534;2024-01-30T07:26:26;8.93;;;7.35;;
82396;SDS011;72034;51.426;7.534;2024-01-30T07:28:52;15.23;;;7.30;;
82396;SDS011;72034;51.426;7.534;2024-01-30T07:31:17;11.40;;;7.45;;
82396;SDS011;72034;51.426;7.534;2024-01-30T07:33:45;9.20;;;7.30;;
82396;SDS011;72034;51.426;7.534;2024-01-30T07:36:13;9.13;;;8.00;;
82396;SDS011;72034;51.426;7.534;2024-01-30T07:38:39;10.25;;;6.90;;
82396;SDS011;72034;51.426;7.534;2024-01-30T07:41:05;9.35;;;7.53;;
82396;SDS011;72034;51.426;7.534;2024-01-30T07:43:31;12.18;;;8.02;;
82396;SDS011;72034;51.426;7.534;2024-01-30T07:45:56;10.73;;;7.30;;
82396;SDS011;72034;51.426;7.534;2024-01-30T07:48:26;12.25;;;7.63;;
82396;SDS011;72034;51.426;7.534;2024-01-30T07:50:52;9.90;;;8.07;;
82396;SDS011;72034;51.426;7.534;2024-01-30T07:53:18;12.40;;;7.32;;
82396;SDS011;72034;51.426;7.534;2024-01-30T07:55:50;12.13;;;7.75;;
82396;SDS011;72034;51.426;7.534;2024-01-30T07:58:15;10.60;;;7.40;;
82396;SDS011;72034;51.426;7.534;2024-01-30T08:00:44;9.15;;;7.32;;
82396;SDS011;72034;51.426;7.534;2024-01-30T08:03:10;11.73;;;7.18;;
82396;SDS011;72034;51.426;7.534;2024-01-30T08:05:35;11.25;;;7.53;;
82396;SDS011;72034;51.426;7.534;2024-01-30T08:08:01;8.05;;;7.25;;
82396;SDS011;72034;51.426;7.534;2024-01-30T08:10:29;7.95;;;6.97;;
82396;SDS011;72034;51.426;7.534;2024-01-30T08:12:55;8.20;;;7.25;;
82396;SDS011;72034;51.426;7.534;2024-01-30T08:15:24;9.45;;;7.43;;
82396;SDS011;72034;51.426;7.534;2024-01-30T08:17:49;10.60;;;7.10;;
82396;SDS011;72034;51.426;7.534;2024-01-30T08:20:20;8.18;;;7.10;;
82396;SDS011;72034;51.426;7.534;2024-01-30T08:22:50;9.48;;;7.28;;
82396;SDS011;72034;51.426;7.534;2024-01-30T08:25:19;8.93;;;7.22;;
82396;SDS011;72034;51.426;7.534;2024-01-30T08:27:44;10.65;;;7.07;;
82396;SDS011;72034;51.426;7.534;2024-01-30T08:30:12;13.60;;;7.82;;
82396;SDS011;72034;51.426;7.534;2024-01-30T08:32:38;8.52;;;7.13;;
82396;SDS011;72034;51.426;7.534;2024-01-30T08:35:04;11.63;;;7.55;;
82396;SDS011;72034;51.426;7.534;2024-01-30T08:37:32;10.07;;;7.63;;
82396;SDS011;72034;51.426;7.534;2024-01-30T08:39:57;8.27;;;7.40;;
82396;SDS011;72034;51.426;7.534;2024-01-30T08:42:23;10.93;;;7.25;;
82396;SDS011;72034;51.426;7.534;2024-01-30T08:44:49;12.63;;;7.13;;
82396;SDS011;72034;51.426;7.534;2024-01-30T08:47:19;11.38;;;7.85;;
82396;SDS011;72034;51.426;7.534;2024-01-30T08:49:44;9.02;;;6.78;;
82396;SDS011;72034;51.426;7.534;2024-01-30T08:52:10;10.02;;;6.80;;
82396;SDS011;72034;51.426;7.534;2024-01-30T08:54:36;8.40;;;7.13;;
82396;SDS011;72034;51.426;7.534;2024-01-30T08:57:04;9.10;;;6.97;;
82396;SDS011;72034;51.426;7.534;2024-01-30T08:59:32;9.65;;;6.65;;
82396;SDS011;72034;51.426;7.534;2024-01-30T09:02:00;9.65;;;6.53;;
82396;SDS011;72034;51.426;7.534;2024-01-30T09:04:26;9.55;;;6.78;;
82396;SDS011;72034;51.426;7.534;2024-01-30T09:06:51;7.78;;;6.28;;
82396;SDS011;72034;51.426;7.534;2024-01-30T09:09:17;8.13;;;6.53;;
82396;SDS011;72034;51.426;7.534;2024-01-30T09:11:48;9.05;;;7.57;;
82396;SDS011;72034;51.426;7.534;2024-01-30T09:14:14;10.13;;;6.80;;
82396;SDS011;72034;51.426;7.534;2024-01-30T09:16:42;11.85;;;6.95;;
82396;SDS011;72034;51.426;7.534;2024-01-30T09:19:10;8.68;;;6.78;;
82396;SDS011;72034;51.426;7.534;2024-01-30T09:21:38;7.88;;;6.70;;
82396;SDS011;72034;51.426;7.534;2024-01-30T09:24:09;10.38;;;7.03;;
82396;SDS011;72034;51.426;7.534;2024-01-30T09:26:45;9.25;;;6.88;;
82396;SDS011;72034;51.426;7.534;2024-01-30T09:29:11;7.65;;;6.63;;
82396;SDS011;72034;51.426;7.534;2024-01-30T09:31:37;9.88;;;6.78;;
82396;SDS011;72034;51.426;7.534;2024-01-30T09:34:05;9.52;;;6.57;;
82396;SDS011;72034;51.426;7.534;2024-01-30T09:36:33;9.23;;;6.75;;
82396;SDS011;72034;51.426;7.534;2024-01-30T09:38:59;7.95;;;6.90;;
82396;SDS011;72034;51.426;7.534;2024-01-30T09:41:25;9.95;;;6.85;;
82396;SDS011;72034;51.426;7.534;2024-01-30T09:43:52;10.18;;;6.60;;
82396;SDS011;72034;51.426;7.534;2024-01-30T09:46:22;9.85;;;6.55;;
82396;SDS011;72034;51.426;7.534;2024-01-30T09:48:55;10.15;;;6.45;;
82396;SDS011;72034;51.426;7.534;2024-01-30T09:51:23;8.55;;;6.80;;
82396;SDS011;72034;51.426;7.534;2024-01-30T09:53:49;11.30;;;6.80;;
82396;SDS011;72034;51.426;7.534;2024-01-30T09:56:17;8.60;;;7.38;;
82396;SDS011;72034;51.426;7.534;2024-01-30T09:58:44;9.20;;;6.95;;
82396;SDS011;72034;51.426;7.534;2024-01-30T10:01:10;9.57;;;7.20;;
82396;SDS011;72034;51.426;7.534;2024-01-30T10:03:38;9.75;;;6.40;;
82396;SDS011;72034;51.426;7.534;2024-01-30T10:06:09;9.55;;;7.43;;
82396;SDS011;72034;51.426;7.534;2024-01-30T10:08:37;7.38;;;6.30;;
82396;SDS011;72034;51.426;7.534;2024-01-30T10:11:06;9.80;;;6.30;;
82396;SDS011;72034;51.426;7.534;2024-01-30T10:13:32;8.27;;;6.00;;
82396;SDS011;72034;51.426;7.534;2024-01-30T10:15:58;8.98;;;6.25;;
82396;SDS011;72034;51.426;7.534;2024-01-30T10:18:24;10.05;;;6.25;;
82396;SDS011;72034;51.426;7.534;2024-01-30T10:20:50;7.93;;;6.75;;
82396;SDS011;72034;51.426;7.534;2024-01-30T10:23:19;7.80;;;6.50;;
82396;SDS011;72034;51.426;7.534;2024-01-30T10:26:00;8.98;;;6.13;;
82396;SDS011;72034;51.426;7.534;2024-01-30T10:29:01;8.63;;;6.35;;
82396;SDS011;72034;51.426;7.534;2024-01-30T10:31:35;8.63;;;6.78;;
82396;SDS011;72034;51.426;7.534;2024-01-30T10:34:16;10.75;;;6.10;;
82396;SDS011;72034;51.426;7.534;2024-01-30T10:40:17;12.13;;;6.10;;
82396;SDS011;72034;51.426;7.534;2024-01-30T10:46:00;9.68;;;6.03;;
82396;SDS011;72034;51.426;7.534;2024-01-30T10:49:06;7.45;;;5.80;;
82396;SDS011;72034;51.426;7.534;2024-01-30T10:55:14;8.25;;;5.70;;
82396;SDS011;72034;51.426;7.534;2024-01-30T11:01:16;8.73;;;5.68;;
82396;SDS011;72034;51.426;7.534;2024-01-30T11:34:34;9.80;;;5.13;;
82396;SDS011;72034;51.426;7.534;2024-01-30T11:47:44;8.75;;;5.57;;
82396;SDS011;72034;51.426;7.534;2024-01-30T11:50:16;11.18;;;6.20;;
82396;SDS011;72034;51.426;7.534;2024-01-30T11:52:44;6.72;;;5.13;;
82396;SDS011;72034;51.426;7.534;2024-01-30T11:55:10;12.05;;;5.45;;
82396;SDS011;72034;51.426;7.534;2024-01-30T11:57:36;9.05;;;5.38;;
82396;SDS011;72034;51.426;7.534;2024-01-30T12:00:02;7.38;;;5.22;;
82396;SDS011;72034;51.426;7.534;2024-01-30T12:02:40;9.25;;;5.78;;
82396;SDS011;72034;51.426;7.534;2024-01-30T12:28:20;13.60;;;6.18;;
82396;SDS011;72034;51.426;7.534;2024-01-30T12:31:37;12.95;;;6.15;;
82396;SDS011;72034;51.426;7.534;2024-01-30T12:34:33;11.40;;;6.45;;
82396;SDS011;72034;51.426;7.534;2024-01-30T12:41:37;9.95;;;5.90;;
82396;SDS011;72034;51.426;7.534;2024-01-30T12:44:20;20.85;;;7.00;;
82396;SDS011;72034;51.426;7.534;2024-01-30T12:50:33;16.65;;;8.07;;
82396;SDS011;72034;51.426;7.534;2024-01-30T12:56:33;12.23;;;6.60;;
82396;SDS011;72034;51.426;7.534;2024-01-30T12:59:27;10.57;;;6.78;;
82396;SDS011;72034;51.426;7.534;2024-01-30T13:02:59;9.93;;;6.50;;
82396;SDS011;72034;51.426;7.534;2024-01-30T13:09:42;12.52;;;7.40;;
82396;SDS011;72034;51.426;7.534;2024-01-30T13:28:28;14.48;;;7.32;;
82396;SDS011;72034;51.426;7.534;2024-01-30T13:33:50;13.85;;;7.43;;
82396;SDS011;72034;51.426;7.534;2024-01-30T13:39:50;16.42;;;7.50;;
82396;SDS011;72034;51.426;7.534;2024-01-30T13:42:18;9.88;;;7.35;;
82396;SDS011;72034;51.426;7.534;2024-01-30T13:49:24;11.35;;;7.97;;
82396;SDS011;72034;51.426;7.534;2024-01-30T13:52:31;13.40;;;8.25;;
82396;SDS011;72034;51.426;7.534;2024-01-30T13:55:39;11.65;;;8.25;;
82396;SDS011;72034;51.426;7.534;2024-01-30T13:58:52;12.18;;;7.72;;
82396;SDS011;72034;51.426;7.534;2024-01-30T14:01:54;10.65;;;8.05;;
82396;SDS011;72034;51.426;7.534;2024-01-30T14:17:09;13.10;;;8.68;;
82396;SDS011;72034;51.426;7.534;2024-01-30T14:19:44;11.13;;;8.05;;
82396;SDS011;72034;51.426;7.534;2024-01-30T14:22:22;13.10;;;9.13;;
82396;SDS011;72034;51.426;7.534;2024-01-30T14:24:50;13.25;;;8.88;;
82396;SDS011;72034;51.426;7.534;2024-01-30T14:30:31;12.60;;;9.73;;
82396;SDS011;72034;51.426;7.534;2024-01-30T14:33:00;13.27;;;9.63;;
82396;SDS011;72034;51.426;7.534;2024-01-30T14:35:32;13.10;;;9.50;;
82396;SDS011;72034;51.426;7.534;2024-01-30T14:38:06;17.77;;;10.85;;
82396;SDS011;72034;51.426;7.534;2024-01-30T14:40:53;17.48;;;11.15;;
82396;SDS011;72034;51.426;7.534;2024-01-30T14:47:18;16.63;;;9.30;;
82396;SDS011;72034;51.426;7.534;2024-01-30T14:52:59;13.65;;;9.40;;
82396;SDS011;72034;51.426;7.534;2024-01-30T14:55:40;12.95;;;8.77;;
82396;SDS011;72034;51.426;7.534;2024-01-30T15:01:05;9.75;;;8.43;;
82396;SDS011;72034;51.426;7.534;2024-01-30T15:03:31;13.55;;;8.43;;
82396;SDS011;72034;51.426;7.534;2024-01-30T15:05:57;12.75;;;8.52;;
82396;SDS011;72034;51.426;7.534;2024-01-30T15:08:23;11.73;;;9.20;;
82396;SDS011;72034;51.426;7.534;2024-01-30T15:10:48;12.10;;;8.35;;
82396;SDS011;72034;51.426;7.534;2024-01-30T15:13:17;10.95;;;8.38;;
82396;SDS011;72034;51.426;7.534;2024-01-30T15:15:43;10.73;;;8.57;;
82396;SDS011;72034;51.426;7.534;2024-01-30T15:18:09;12.45;;;8.10;;
82396;SDS011;72034;51.426;7.534;2024-01-30T15:20:37;12.50;;;8.25;;
82396;SDS011;72034;51.426;7.534;2024-01-30T15:23:03;11.18;;;8.70;;
82396;SDS011;72034;51.426;7.534;2024-01-30T15:25:28;11.35;;;7.45;;
82396;SDS011;72034;51.426;7.534;2024-01-30T15:27:54;9.73;;;7.50;;
82396;SDS011;72034;51.426;7.534;2024-01-30T15:30:19;10.30;;;7.70;;
82396;SDS011;72034;51.426;7.534;2024-01-30T15:32:45;15.10;;;9.20;;
82396;SDS011;72034;51.426;7.534;2024-01-30T15:35:10;12.55;;;8.50;;
82396;SDS011;72034;51.426;7.534;2024-01-30T15:37:36;11.30;;;7.82;;
82396;SDS011;72034;51.426;7.534;2024-01-30T15:40:01;10.55;;;8.07;;
82396;SDS011;72034;51.426;7.534;2024-01-30T15:42:27;10.13;;;7.88;;
82396;SDS011;72034;51.426;7.534;2024-01-30T15:44:53;12.85;;;8.55;;
82396;SDS011;72034;51.426;7.534;2024-01-30T15:47:18;11.85;;;9.05;;
82396;SDS011;72034;51.426;7.534;2024-01-30T15:49:43;14.38;;;9.30;;
82396;SDS011;72034;51.426;7.534;2024-01-30T15:52:09;12.35;;;8.20;;
82396;SDS011;72034;51.426;7.534;2024-01-30T15:54:39;14.30;;;9.32;;
82396;SDS011;72034;51.426;7.534;2024-01-30T15:57:04;10.63;;;8.00;;
82396;SDS011;72034;51.426;7.534;2024-01-30T15:59:29;11.15;;;8.25;;
82396;SDS011;72034;51.426;7.534;2024-01-30T16:01:55;11.68;;;8.43;;
82396;SDS011;72034;51.426;7.534;2024-01-30T16:04:20;14.52;;;9.13;;
82396;SDS011;72034;51.426;7.534;2024-01-30T16:06:46;11.52;;;8.98;;
82396;SDS011;72034;51.426;7.534;2024-01-30T16:09:11;14.27;;;9.43;;
82396;SDS011;72034;51.426;7.534;2024-01-30T16:11:39;17.20;;;8.90;;
82396;SDS011;72034;51.426;7.534;2024-01-30T16:14:05;13.98;;;8.93;;
82396;SDS011;72034;51.426;7.534;2024-01-30T16:16:30;16.55;;;9.00;;
82396;SDS011;72034;51.426;7.534;2024-01-30T16:18:56;11.82;;;8.68;;
82396;SDS011;72034;51.426;7.534;2024-01-30T16:21:21;15.13;;;8.75;;
82396;SDS011;72034;51.426;7.534;2024-01-30T16:23:46;12.18;;;7.95;;
82396;SDS011;72034;51.426;7.534;2024-01-30T16:26:12;13.05;;;8.98;;
82396;SDS011;72034;51.426;7.534;2024-01-30T16:28:37;13.23;;;8.30;;
82396;SDS011;72034;51.426;7.534;2024-01-30T16:31:03;13.35;;;8.88;;
82396;SDS011;72034;51.426;7.534;2024-01-30T16:33:29;13.00;;;8.05;;
82396;SDS011;72034;51.426;7.534;2024-01-30T16:35:54;10.70;;;7.45;;
82396;SDS011;72034;51.426;7.534;2024-01-30T16:38:20;9.30;;;6.35;;
82396;SDS011;72034;51.426;7.534;2024-01-30T16:40:45;7.78;;;5.70;;
82396;SDS011;72034;51.426;7.534;2024-01-30T16:43:11;9.18;;;5.68;;
82396;SDS011;72034;51.426;7.534;2024-01-30T16:45:37;7.60;;;5.55;;
82396;SDS011;72034;51.426;7.534;2024-01-30T16:48:02;8.40;;;5.13;;
82396;SDS011;72034;51.426;7.534;2024-01-30T16:50:27;8.23;;;5.53;;
82396;SDS011;72034;51.426;7.534;2024-01-30T16:52:53;9.07;;;5.50;;
82396;SDS011;72034;51.426;7.534;2024-01-30T16:55:18;7.78;;;4.95;;
82396;SDS011;72034;51.426;7.534;2024-01-30T16:57:44;9.15;;;5.53;;
82396;SDS011;72034;51.426;7.534;2024-01-30T17:00:09;6.85;;;4.22;;
82396;SDS011;72034;51.426;7.534;2024-01-30T17:02:35;5.80;;;4.15;;
82396;SDS011;72034;51.426;7.534;2024-01-30T17:05:00;5.75;;;4.00;;
82396;SDS011;72034;51.426;7.534;2024-01-30T17:07:26;6.30;;;4.00;;
82396;SDS011;72034;51.426;7.534;2024-01-30T17:09:51;7.15;;;3.72;;
82396;SDS011;72034;51.426;7.534;2024-01-30T17:12:18;6.10;;;3.85;;
82396;SDS011;72034;51.426;7.534;2024-01-30T17:14:43;10.25;;;5.70;;
82396;SDS011;72034;51.426;7.534;2024-01-30T17:17:09;8.52;;;3.25;;
82396;SDS011;72034;51.426;7.534;2024-01-30T17:19:34;8.23;;;4.60;;
82396;SDS011;72034;51.426;7.534;2024-01-30T17:22:00;10.10;;;6.63;;
82396;SDS011;72034;51.426;7.534;2024-01-30T17:24:25;6.63;;;2.95;;
82396;SDS011;72034;51.426;7.534;2024-01-30T17:26:50;5.47;;;2.60;;
82396;SDS011;72034;51.426;7.534;2024-01-30T17:29:16;5.70;;;2.50;;
82396;SDS011;72034;51.426;7.534;2024-01-30T17:31:41;10.65;;;6.78;;
82396;SDS011;72034;51.426;7.534;2024-01-30T17:34:09;3.72;;;2.42;;
82396;SDS011;72034;51.426;7.534;2024-01-30T17:36:34;8.05;;;2.40;;
82396;SDS011;72034;51.426;7.534;2024-01-30T17:39:00;4.47;;;2.95;;
82396;SDS011;72034;51.426;7.534;2024-01-30T17:41:25;4.45;;;1.92;;
82396;SDS011;72034;51.426;7.534;2024-01-30T17:43:50;3.67;;;2.53;;
82396;SDS011;72034;51.426;7.534;2024-01-30T17:46:16;4.60;;;2.20;;
82396;SDS011;72034;51.426;7.534;2024-01-30T17:48:41;3.83;;;2.20;;
82396;SDS011;72034;51.426;7.534;2024-01-30T17:51:06;7.00;;;2.17;;
82396;SDS011;72034;51.426;7.534;2024-01-30T17:53:31;5.75;;;1.77;;
82396;SDS011;72034;51.426;7.534;2024-01-30T17:55:57;3.40;;;1.75;;
82396;SDS011;72034;51.426;7.534;2024-01-30T17:58:26;3.50;;;1.48;;
82396;SDS011;72034;51.426;7.534;2024-01-30T18:00:51;9.52;;;2.03;;
82396;SDS011;72034;51.426;7.534;2024-01-30T18:03:16;3.72;;;1.33;;
82396;SDS011;72034;51.426;7.534;2024-01-30T18:05:42;4.45;;;1.60;;
82396;SDS011;72034;51.426;7.534;2024-01-30T18:08:07;3.97;;;1.80;;
82396;SDS011;72034;51.426;7.534;2024-01-30T18:10:33;4.57;;;1.25;;
82396;SDS011;72034;51.426;7.534;2024-01-30T18:13:00;2.70;;;1.52;;
82396;SDS011;72034;51.426;7.534;2024-01-30T18:15:26;5.18;;;1.67;;
82396;SDS011;72034;51.426;7.534;2024-01-30T18:17:51;3.80;;;1.60;;
82396;SDS011;72034;51.426;7.534;2024-01-30T18:20:17;4.60;;;1.65;;
82396;SDS011;72034;51.426;7.534;2024-01-30T18:22:42;7.20;;;1.50;;
82396;SDS011;72034;51.426;7.534;2024-01-30T18:25:09;3.78;;;1.38;;
82396;SDS011;72034;51.426;7.534;2024-01-30T18:27:35;7.70;;;2.13;;
82396;SDS011;72034;51.426;7.534;2024-01-30T18:30:00;3.03;;;1.40;;
82396;SDS011;72034;51.426;7.534;2024-01-30T18:32:25;7.43;;;1.92;;
82396;SDS011;72034;51.426;7.534;2024-01-30T18:34:50;3.10;;;1.98;;
82396;SDS011;72034;51.426;7.534;2024-01-30T18:37:16;4.10;;;1.80;;
82396;SDS011;72034;51.426;7.534;2024-01-30T18:39:41;3.92;;;2.13;;
82396;SDS011;72034;51.426;7.534;2024-01-30T18:42:08;4.50;;;2.85;;
82396;SDS011;72034;51.426;7.534;2024-01-30T18:44:33;3.85;;;3.03;;
82396;SDS011;72034;51.426;7.534;2024-01-30T18:46:58;5.13;;;3.65;;
82396;SDS011;72034;51.426;7.534;2024-01-30T18:49:24;7.70;;;4.22;;
82396;SDS011;72034;51.426;7.534;2024-01-30T18:51:49;5.25;;;3.70;;
82396;SDS011;72034;51.426;7.534;2024-01-30T18:54:19;7.32;;;5.05;;
82396;SDS011;72034;51.426;7.534;2024-01-30T18:56:45;5.30;;;4.80;;
82396;SDS011;72034;51.426;7.534;2024-01-30T18:59:10;6.22;;;5.25;;
82396;SDS011;72034;51.426;7.534;2024-01-30T19:01:41;6.07;;;5.47;;
82396;SDS011;72034;51.426;7.534;2024-01-30T19:04:07;7.00;;;6.30;;
82396;SDS011;72034;51.426;7.534;2024-01-30T19:06:32;5.55;;;5.05;;
82396;SDS011;72034;51.426;7.534;2024-01-30T19:08:58;8.70;;;6.70;;
82396;SDS011;72034;51.426;7.534;2024-01-30T19:11:23;6.22;;;5.63;;
82396;SDS011;72034;51.426;7.534;2024-01-30T19:13:49;5.25;;;4.75;;
82396;SDS011;72034;51.426;7.534;2024-01-30T19:16:14;8.80;;;5.10;;
82396;SDS011;72034;51.426;7.534;2024-01-30T19:18:39;6.05;;;4.68;;
82396;SDS011;72034;51.426;7.534;2024-01-30T19:21:05;7.38;;;4.25;;
82396;SDS011;72034;51.426;7.534;2024-01-30T19:23:30;5.78;;;3.50;;
82396;SDS011;72034;51.426;7.534;2024-01-30T19:25:55;4.57;;;3.67;;
82396;SDS011;72034;51.426;7.534;2024-01-30T19:28:21;6.05;;;3.47;;
82396;SDS011;72034;51.426;7.534;2024-01-30T19:30:46;4.53;;;3.28;;
82396;SDS011;72034;51.426;7.534;2024-01-30T19:33:11;4.10;;;2.60;;
82396;SDS011;72034;51.426;7.534;2024-01-30T19:35:36;4.22;;;2.75;;
82396;SDS011;72034;51.426;7.534;2024-01-30T19:38:02;4.50;;;2.72;;
82396;SDS011;72034;51.426;7.534;2024-01-30T19:40:27;4.30;;;2.70;;
82396;SDS011;72034;51.426;7.534;2024-01-30T19:42:53;3.22;;;2.42;;
82396;SDS011;72034;51.426;7.534;2024-01-30T19:45:18;3.20;;;2.38;;
82396;SDS011;72034;51.426;7.534;2024-01-30T19:47:44;6.05;;;2.92;;
82396;SDS011;72034;51.426;7.534;2024-01-30T19:50:09;3.53;;;2.67;;
82396;SDS011;72034;51.426;7.534;2024-01-30T19:52:34;4.25;;;2.50;;
82396;SDS011;72034;51.426;7.534;2024-01-30T19:55:01;3.67;;;2.35;;
82396;SDS011;72034;51.426;7.534;2024-01-30T19:57:27;3.85;;;2.25;;
82396;SDS011;72034;51.426;7.534;2024-01-30T19:59:53;3.20;;;2.67;;
82396;SDS011;72034;51.426;7.534;2024-01-30T20:02:18;4.47;;;2.78;;
82396;SDS011;72034;51.426;7.534;2024-01-30T20:04:45;5.40;;;2.92;;
82396;SDS011;72034;51.426;7.534;2024-01-30T20:07:11;5.32;;;2.85;;
82396;SDS011;72034;51.426;7.534;2024-01-30T20:09:38;3.67;;;2.80;;
82396;SDS011;72034;51.426;7.534;2024-01-30T20:12:04;4.00;;;2.88;;
82396;SDS011;72034;51.426;7.534;2024-01-30T20:14:29;4.05;;;3.10;;
82396;SDS011;72034;51.426;7.534;2024-01-30T20:16:55;5.22;;;4.45;;
82396;SDS011;72034;51.426;7.534;2024-01-30T20:19:20;5.05;;;3.30;;
82396;SDS011;72034;51.426;7.534;2024-01-30T20:21:45;4.43;;;3.22;;
82396;SDS011;72034;51.426;7.534;2024-01-30T20:24:12;4.55;;;3.42;;
82396;SDS011;72034;51.426;7.534;2024-01-30T20:26:37;4.85;;;4.30;;
82396;SDS011;72034;51.426;7.534;2024-01-30T20:29:02;5.07;;;4.25;;
82396;SDS011;72034;51.426;7.534;2024-01-30T20:31:28;4.75;;;4.05;;
82396;SDS011;72034;51.426;7.534;2024-01-30T20:33:53;6.18;;;5.55;;
82396;SDS011;72034;51.426;7.534;2024-01-30T20:36:19;5.18;;;4.63;;
82396;SDS011;72034;51.426;7.534;2024-01-30T20:38:44;6.45;;;4.70;;
82396;SDS011;72034;51.426;7.534;2024-01-30T20:41:10;8.75;;;5.88;;
82396;SDS011;72034;51.426;7.534;2024-01-30T20:43:39;8.55;;;6.43;;
82396;SDS011;72034;51.426;7.534;2024-01-30T20:46:06;6.65;;;5.85;;
82396;SDS011;72034;51.426;7.534;2024-01-30T20:48:32;8.75;;;5.80;;
82396;SDS011;72034;51.426;7.534;2024-01-30T20:50:58;7.18;;;5.15;;
82396;SDS011;72034;51.426;7.534;2024-01-30T20:53:23;8.52;;;6.10;;
82396;SDS011;72034;51.426;7.534;2024-01-30T20:55:49;6.18;;;5.22;;
82396;SDS011;72034;51.426;7.534;2024-01-30T20:58:15;8.60;;;5.97;;
82396;SDS011;72034;51.426;7.534;2024-01-30T21:00:40;8.02;;;6.35;;
82396;SDS011;72034;51.426;7.534;2024-01-30T21:03:06;7.60;;;6.32;;
82396;SDS011;72034;51.426;7.534;2024-01-30T21:05:31;8.63;;;6.68;;
82396;SDS011;72034;51.426;7.534;2024-01-30T21:07:56;13.07;;;7.78;;
82396;SDS011;72034;51.426;7.534;2024-01-30T21:10:22;9.93;;;8.57;;
82396;SDS011;72034;51.426;7.534;2024-01-30T21:12:47;12.20;;;8.95;;
82396;SDS011;72034;51.426;7.534;2024-01-30T21:15:13;11.85;;;8.77;;
82396;SDS011;72034;51.426;7.534;2024-01-30T21:17:38;11.20;;;9.13;;
82396;SDS011;72034;51.426;7.534;2024-01-30T21:20:03;11.05;;;9.43;;
82396;SDS011;72034;51.426;7.534;2024-01-30T21:22:29;11.43;;;9.65;;
82396;SDS011;72034;51.426;7.534;2024-01-30T21:24:54;12.20;;;9.50;;
82396;SDS011;72034;51.426;7.534;2024-01-30T21:27:20;10.80;;;9.68;;
82396;SDS011;72034;51.426;7.534;2024-01-30T21:29:45;13.13;;;10.13;;
82396;SDS011;72034;51.426;7.534;2024-01-30T21:32:13;12.48;;;10.23;;
82396;SDS011;72034;51.426;7.534;2024-01-30T21:34:40;12.25;;;10.82;;
82396;SDS011;72034;51.426;7.534;2024-01-30T21:37:05;11.57;;;10.43;;
82396;SDS011;72034;51.426;7.534;2024-01-30T21:39:34;13.18;;;11.63;;
82396;SDS011;72034;51.426;7.534;2024-01-30T21:41:59;13.70;;;10.45;;
82396;SDS011;72034;51.426;7.534;2024-01-30T21:44:25;14.23;;;11.38;;
82396;SDS011;72034;51.426;7.534;2024-01-30T21:46:50;14.73;;;11.93;;
82396;SDS011;72034;51.426;7.534;2024-01-30T21:49:15;12.43;;;11.13;;
82396;SDS011;72034;51.426;7.534;2024-01-30T21:51:41;13.43;;;12.02;;
82396;SDS011;72034;51.426;7.534;2024-01-30T21:54:07;13.70;;;11.27;;
82396;SDS011;72034;51.426;7.534;2024-01-30T21:56:33;14.45;;;11.65;;
82396;SDS011;72034;51.426;7.534;2024-01-30T21:58:59;12.98;;;11.68;;
82396;SDS011;72034;51.426;7.534;2024-01-30T22:01:24;13.32;;;11.90;;
82396;SDS011;72034;51.426;7.534;2024-01-30T22:03:49;15.52;;;13.02;;
82396;SDS011;72034;51.426;7.534;2024-01-30T22:06:16;16.88;;;13.13;;
82396;SDS011;72034;51.426;7.534;2024-01-30T22:08:43;13.45;;;12.05;;
82396;SDS011;72034;51.426;7.534;2024-01-30T22:11:09;17.38;;;13.57;;
82396;SDS011;72034;51.426;7.534;2024-01-30T22:13:35;15.43;;;13.85;;
82396;SDS011;72034;51.426;7.534;2024-01-30T22:16:03;16.35;;;13.63;;
82396;SDS011;72034;51.426;7.534;2024-01-30T22:18:29;18.30;;;14.10;;